sensor_id;sensor_type;location;lat;lon;timestamp;P1;durP1;ratioP1;P2;durP2;ratioP2
68944;SDS011;55984;48.790;8.990;2022-09-09T00:04:25;7.60;;;2.53;;
68944;SDS011;55984;48.790;8.990;2022-09-09T00:06:55;6.40;;;2.60;;
68944;SDS011;55984;48.790;8.990;2022-09-09T00:09:25;5.53;;;2.50;;
68944;SDS011;55984;48.790;8.990;2022-09-09T00:12:12;6.07;;;2.40;;
68944;SDS011;55984;48.790;8.990;2022-09-09T00:14:51;4.70;;;2.40;;
68944;SDS011;55984;48.790;8.990;2022-09-09T00:19:58;6.23;;;2.43;;
68944;SDS011;55984;48.790;8.990;2022-09-09T00:22:27;2.80;;;2.20;;
68944;SDS011;55984;48.790;8.990;2022-09-09T00:24:56;6.27;;;2.23;;
68944;SDS011;55984;48.790;8.990;2022-09-09T00:27:48;7.23;;;2.30;;
68944;SDS011;55984;48.790;8.990;2022-09-09T00:30:16;4.57;;;2.20;;
68944;SDS011;55984;48.790;8.990;2022-09-09T00:32:47;3.37;;;2.10;;
68944;SDS011;55984;48.790;8.990;2022-09-09T00:35:24;5.53;;;2.23;;
68944;SDS011;55984;48.790;8.990;2022-09-09T00:37:56;4.00;;;2.03;;
68944;SDS011;55984;48.790;8.990;2022-09-09T00:40:27;3.60;;;2.17;;
68944;SDS011;55984;48.790;8.990;2022-09-09T00:45:46;3.80;;;2.07;;
68944;SDS011;55984;48.790;8.990;2022-09-09T00:48:20;4.67;;;2.03;;
68944;SDS011;55984;48.790;8.990;2022-09-09T00:50:59;4.23;;;2.30;;
68944;SDS011;55984;48.790;8.990;2022-09-09T00:56:47;3.53;;;2.10;;
68944;SDS011;55984;48.790;8.990;2022-09-09T01:02:18;7.87;;;2.43;;
68944;SDS011;55984;48.790;8.990;2022-09-09T01:04:51;4.00;;;2.33;;
68944;SDS011;55984;48.790;8.990;2022-09-09T01:07:18;5.30;;;2.40;;
68944;SDS011;55984;48.790;8.990;2022-09-09T01:12:42;6.40;;;2.23;;
68944;SDS011;55984;48.790;8.990;2022-09-09T01:17:37;4.93;;;2.50;;
68944;SDS011;55984;48.790;8.990;2022-09-09T01:20:25;3.00;;;2.20;;
68944;SDS011;55984;48.790;8.990;2022-09-09T01:28:49;6.83;;;2.70;;
68944;SDS011;55984;48.790;8.990;2022-09-09T01:31:22;9.00;;;2.60;;
68944;SDS011;55984;48.790;8.990;2022-09-09T01:39:00;9.50;;;2.73;;
68944;SDS011;55984;48.790;8.990;2022-09-09T01:41:25;5.30;;;2.13;;
68944;SDS011;55984;48.790;8.990;2022-09-09T01:43:52;4.73;;;2.20;;
68944;SDS011;55984;48.790;8.990;2022-09-09T01:46:19;5.53;;;2.40;;
68944;SDS011;55984;48.790;8.990;2022-09-09T01:48:47;7.80;;;2.53;;
68944;SDS011;55984;48.790;8.990;2022-09-09T01:51:14;9.87;;;2.70;;
68944;SDS011;55984;48.790;8.990;2022-09-09T01:53:40;2.90;;;2.00;;
68944;SDS011;55984;48.790;8.990;2022-09-09T02:10:16;4.10;;;2.00;;
68944;SDS011;55984;48.790;8.990;2022-09-09T02:12:46;3.40;;;1.97;;
68944;SDS011;55984;48.790;8.990;2022-09-09T02:15:23;5.77;;;2.10;;
68944;SDS011;55984;48.790;8.990;2022-09-09T02:17:56;5.10;;;1.80;;
68944;SDS011;55984;48.790;8.990;2022-09-09T02:23:04;5.77;;;1.90;;
68944;SDS011;55984;48.790;8.990;2022-09-09T02:25:32;3.67;;;1.90;;
68944;SDS011;55984;48.790;8.990;2022-09-09T02:28:00;4.37;;;1.80;;
68944;SDS011;55984;48.790;8.990;2022-09-09T02:30:28;4.03;;;1.70;;
68944;SDS011;55984;48.790;8.990;2022-09-09T02:32:56;2.80;;;1.67;;
68944;SDS011;55984;48.790;8.990;2022-09-09T02:35:24;3.77;;;3.40;;
68944;SDS011;55984;48.790;8.990;2022-09-09T02:37:52;5.33;;;1.80;;
68944;SDS011;55984;48.790;8.990;2022-09-09T02:40:20;2.83;;;1.80;;
68944;SDS011;55984;48.790;8.990;2022-09-09T02:42:47;2.80;;;1.70;;
68944;SDS011;55984;48.790;8.990;2022-09-09T02:45:18;4.93;;;1.90;;
68944;SDS011;55984;48.790;8.990;2022-09-09T02:50:35;5.33;;;2.20;;
68944;SDS011;55984;48.790;8.990;2022-09-09T02:53:17;6.83;;;2.10;;
68944;SDS011;55984;48.790;8.990;2022-09-09T02:58:22;3.57;;;2.07;;
68944;SDS011;55984;48.790;8.990;2022-09-09T03:00:49;4.30;;;2.10;;
68944;SDS011;55984;48.790;8.990;2022-09-09T03:03:16;3.50;;;1.87;;
68944;SDS011;55984;48.790;8.990;2022-09-09T03:05:43;4.00;;;1.80;;
68944;SDS011;55984;48.790;8.990;2022-09-09T03:08:09;3.57;;;1.90;;
68944;SDS011;55984;48.790;8.990;2022-09-09T03:10:35;4.53;;;1.90;;
68944;SDS011;55984;48.790;8.990;2022-09-09T03:13:02;3.60;;;1.83;;
68944;SDS011;55984;48.790;8.990;2022-09-09T03:15:29;2.90;;;1.60;;
68944;SDS011;55984;48.790;8.990;2022-09-09T03:17:55;4.77;;;1.83;;
68944;SDS011;55984;48.790;8.990;2022-09-09T03:20:21;2.40;;;1.80;;
68944;SDS011;55984;48.790;8.990;2022-09-09T03:22:47;3.50;;;1.83;;
68944;SDS011;55984;48.790;8.990;2022-09-09T03:25:13;3.90;;;1.80;;
68944;SDS011;55984;48.790;8.990;2022-09-09T03:27:38;2.87;;;1.70;;
68944;SDS011;55984;48.790;8.990;2022-09-09T03:30:04;3.03;;;1.70;;
68944;SDS011;55984;48.790;8.990;2022-09-09T03:32:30;5.83;;;1.73;;
68944;SDS011;55984;48.790;8.990;2022-09-09T03:34:56;2.77;;;1.70;;
68944;SDS011;55984;48.790;8.990;2022-09-09T03:37:21;8.10;;;2.30;;
68944;SDS011;55984;48.790;8.990;2022-09-09T03:39:47;3.07;;;2.00;;
68944;SDS011;55984;48.790;8.990;2022-09-09T03:42:13;5.70;;;2.13;;
68944;SDS011;55984;48.790;8.990;2022-09-09T03:44:42;4.77;;;2.23;;
68944;SDS011;55984;48.790;8.990;2022-09-09T03:47:09;2.97;;;1.83;;
68944;SDS011;55984;48.790;8.990;2022-09-09T03:49:34;3.10;;;2.10;;
68944;SDS011;55984;48.790;8.990;2022-09-09T03:51:59;3.70;;;2.00;;
68944;SDS011;55984;48.790;8.990;2022-09-09T03:54:26;3.23;;;1.80;;
68944;SDS011;55984;48.790;8.990;2022-09-09T03:56:52;3.80;;;2.13;;
68944;SDS011;55984;48.790;8.990;2022-09-09T03:59:17;3.53;;;2.03;;
68944;SDS011;55984;48.790;8.990;2022-09-09T04:01:43;3.00;;;1.83;;
68944;SDS011;55984;48.790;8.990;2022-09-09T04:04:10;5.40;;;2.10;;
68944;SDS011;55984;48.790;8.990;2022-09-09T04:06:37;9.10;;;3.10;;
68944;SDS011;55984;48.790;8.990;2022-09-09T04:09:02;3.67;;;1.90;;
68944;SDS011;55984;48.790;8.990;2022-09-09T04:11:28;5.80;;;2.03;;
68944;SDS011;55984;48.790;8.990;2022-09-09T04:13:53;3.20;;;2.37;;
68944;SDS011;55984;48.790;8.990;2022-09-09T04:16:19;3.33;;;1.90;;
68944;SDS011;55984;48.790;8.990;2022-09-09T04:18:45;5.90;;;2.13;;
68944;SDS011;55984;48.790;8.990;2022-09-09T04:21:11;4.20;;;2.10;;
68944;SDS011;55984;48.790;8.990;2022-09-09T04:23:37;3.50;;;1.93;;
68944;SDS011;55984;48.790;8.990;2022-09-09T04:26:02;4.50;;;2.40;;
68944;SDS011;55984;48.790;8.990;2022-09-09T04:28:29;4.30;;;2.03;;
68944;SDS011;55984;48.790;8.990;2022-09-09T04:30:56;4.70;;;2.20;;
68944;SDS011;55984;48.790;8.990;2022-09-09T04:33:23;4.87;;;2.00;;
68944;SDS011;55984;48.790;8.990;2022-09-09T04:35:51;8.10;;;2.30;;
68944;SDS011;55984;48.790;8.990;2022-09-09T04:38:20;10.67;;;2.10;;
68944;SDS011;55984;48.790;8.990;2022-09-09T04:40:47;3.60;;;2.30;;
68944;SDS011;55984;48.790;8.990;2022-09-09T04:43:14;5.03;;;2.23;;
68944;SDS011;55984;48.790;8.990;2022-09-09T04:45:40;3.93;;;2.10;;
68944;SDS011;55984;48.790;8.990;2022-09-09T04:48:06;9.23;;;2.30;;
68944;SDS011;55984;48.790;8.990;2022-09-09T04:50:32;4.07;;;2.40;;
68944;SDS011;55984;48.790;8.990;2022-09-09T04:53:02;5.23;;;2.27;;
68944;SDS011;55984;48.790;8.990;2022-09-09T04:55:28;8.10;;;2.40;;
68944;SDS011;55984;48.790;8.990;2022-09-09T04:57:53;2.90;;;2.00;;
68944;SDS011;55984;48.790;8.990;2022-09-09T05:00:19;6.80;;;2.67;;
68944;SDS011;55984;48.790;8.990;2022-09-09T05:02:45;4.17;;;2.20;;
68944;SDS011;55984;48.790;8.990;2022-09-09T05:05:11;4.20;;;2.20;;
68944;SDS011;55984;48.790;8.990;2022-09-09T05:07:37;5.80;;;2.63;;
68944;SDS011;55984;48.790;8.990;2022-09-09T05:10:02;3.63;;;2.47;;
68944;SDS011;55984;48.790;8.990;2022-09-09T05:12:30;5.73;;;2.77;;
68944;SDS011;55984;48.790;8.990;2022-09-09T05:14:57;8.80;;;2.90;;
68944;SDS011;55984;48.790;8.990;2022-09-09T05:17:23;5.33;;;2.57;;
68944;SDS011;55984;48.790;8.990;2022-09-09T05:19:53;9.63;;;2.43;;
68944;SDS011;55984;48.790;8.990;2022-09-09T05:22:21;4.47;;;2.40;;
68944;SDS011;55984;48.790;8.990;2022-09-09T05:24:50;4.40;;;2.30;;
68944;SDS011;55984;48.790;8.990;2022-09-09T05:27:16;4.60;;;2.30;;
68944;SDS011;55984;48.790;8.990;2022-09-09T05:29:44;8.90;;;2.40;;
68944;SDS011;55984;48.790;8.990;2022-09-09T05:32:10;4.20;;;2.40;;
68944;SDS011;55984;48.790;8.990;2022-09-09T05:34:36;4.93;;;2.40;;
68944;SDS011;55984;48.790;8.990;2022-09-09T05:37:11;20.87;;;3.20;;
68944;SDS011;55984;48.790;8.990;2022-09-09T05:39:37;3.77;;;2.23;;
68944;SDS011;55984;48.790;8.990;2022-09-09T05:42:02;4.87;;;2.33;;
68944;SDS011;55984;48.790;8.990;2022-09-09T05:44:29;7.70;;;2.30;;
68944;SDS011;55984;48.790;8.990;2022-09-09T05:46:55;6.73;;;2.80;;
68944;SDS011;55984;48.790;8.990;2022-09-09T05:49:20;4.33;;;2.70;;
68944;SDS011;55984;48.790;8.990;2022-09-09T05:51:46;5.60;;;2.57;;
68944;SDS011;55984;48.790;8.990;2022-09-09T05:54:12;8.87;;;2.33;;
68944;SDS011;55984;48.790;8.990;2022-09-09T05:56:40;11.47;;;2.37;;
68944;SDS011;55984;48.790;8.990;2022-09-09T05:59:06;6.87;;;2.50;;
68944;SDS011;55984;48.790;8.990;2022-09-09T06:01:32;4.30;;;2.27;;
68944;SDS011;55984;48.790;8.990;2022-09-09T06:03:59;7.23;;;2.40;;
68944;SDS011;55984;48.790;8.990;2022-09-09T06:06:26;4.33;;;2.20;;
68944;SDS011;55984;48.790;8.990;2022-09-09T06:08:55;6.63;;;2.10;;
68944;SDS011;55984;48.790;8.990;2022-09-09T06:11:26;2.73;;;1.90;;
68944;SDS011;55984;48.790;8.990;2022-09-09T06:13:56;7.20;;;2.20;;
68944;SDS011;55984;48.790;8.990;2022-09-09T06:16:22;8.80;;;2.20;;
68944;SDS011;55984;48.790;8.990;2022-09-09T06:18:50;8.90;;;2.17;;
68944;SDS011;55984;48.790;8.990;2022-09-09T06:21:17;3.37;;;2.20;;
68944;SDS011;55984;48.790;8.990;2022-09-09T06:23:46;5.13;;;2.23;;
68944;SDS011;55984;48.790;8.990;2022-09-09T06:26:17;5.87;;;2.40;;
68944;SDS011;55984;48.790;8.990;2022-09-09T06:28:44;4.07;;;2.73;;
68944;SDS011;55984;48.790;8.990;2022-09-09T06:31:15;3.90;;;2.20;;
68944;SDS011;55984;48.790;8.990;2022-09-09T06:33:42;4.20;;;2.40;;
68944;SDS011;55984;48.790;8.990;2022-09-09T06:36:12;5.23;;;2.27;;
68944;SDS011;55984;48.790;8.990;2022-09-09T06:38:40;5.97;;;2.30;;
68944;SDS011;55984;48.790;8.990;2022-09-09T06:41:07;10.77;;;2.60;;
68944;SDS011;55984;48.790;8.990;2022-09-09T06:43:34;12.80;;;2.20;;
68944;SDS011;55984;48.790;8.990;2022-09-09T06:48:57;8.40;;;2.47;;
68944;SDS011;55984;48.790;8.990;2022-09-09T06:51:28;6.97;;;2.40;;
68944;SDS011;55984;48.790;8.990;2022-09-09T06:53:56;6.80;;;2.20;;
68944;SDS011;55984;48.790;8.990;2022-09-09T06:56:24;4.40;;;2.27;;
68944;SDS011;55984;48.790;8.990;2022-09-09T06:58:53;5.30;;;2.17;;
68944;SDS011;55984;48.790;8.990;2022-09-09T07:01:20;5.00;;;2.20;;
68944;SDS011;55984;48.790;8.990;2022-09-09T07:03:51;6.37;;;2.30;;
68944;SDS011;55984;48.790;8.990;2022-09-09T07:06:21;11.40;;;2.20;;
68944;SDS011;55984;48.790;8.990;2022-09-09T07:08:49;5.07;;;2.30;;
68944;SDS011;55984;48.790;8.990;2022-09-09T07:11:22;9.27;;;2.40;;
68944;SDS011;55984;48.790;8.990;2022-09-09T07:13:49;4.03;;;2.00;;
68944;SDS011;55984;48.790;8.990;2022-09-09T07:16:16;15.67;;;2.40;;
68944;SDS011;55984;48.790;8.990;2022-09-09T07:18:42;13.13;;;3.10;;
68944;SDS011;55984;48.790;8.990;2022-09-09T07:21:09;22.90;;;3.33;;
68944;SDS011;55984;48.790;8.990;2022-09-09T07:23:37;8.47;;;2.47;;
68944;SDS011;55984;48.790;8.990;2022-09-09T07:26:07;7.17;;;2.90;;
68944;SDS011;55984;48.790;8.990;2022-09-09T07:28:34;15.73;;;3.33;;
68944;SDS011;55984;48.790;8.990;2022-09-09T07:31:00;3.77;;;2.20;;
68944;SDS011;55984;48.790;8.990;2022-09-09T07:33:30;3.17;;;1.80;;
68944;SDS011;55984;48.790;8.990;2022-09-09T07:36:08;4.00;;;1.83;;
68944;SDS011;55984;48.790;8.990;2022-09-09T07:38:38;7.03;;;2.40;;
68944;SDS011;55984;48.790;8.990;2022-09-09T07:41:09;10.97;;;2.30;;
68944;SDS011;55984;48.790;8.990;2022-09-09T07:43:40;5.03;;;1.90;;
68944;SDS011;55984;48.790;8.990;2022-09-09T07:46:07;5.67;;;2.50;;
68944;SDS011;55984;48.790;8.990;2022-09-09T07:48:33;5.27;;;2.00;;
68944;SDS011;55984;48.790;8.990;2022-09-09T07:51:03;12.73;;;2.03;;
68944;SDS011;55984;48.790;8.990;2022-09-09T07:53:31;5.47;;;2.37;;
68944;SDS011;55984;48.790;8.990;2022-09-09T07:56:02;7.77;;;2.00;;
68944;SDS011;55984;48.790;8.990;2022-09-09T07:58:28;4.40;;;1.97;;
68944;SDS011;55984;48.790;8.990;2022-09-09T08:00:53;3.07;;;1.83;;
68944;SDS011;55984;48.790;8.990;2022-09-09T08:03:19;7.27;;;1.83;;
68944;SDS011;55984;48.790;8.990;2022-09-09T08:05:47;4.30;;;2.17;;
68944;SDS011;55984;48.790;8.990;2022-09-09T08:08:12;5.53;;;3.00;;
68944;SDS011;55984;48.790;8.990;2022-09-09T08:10:37;8.53;;;2.00;;
68944;SDS011;55984;48.790;8.990;2022-09-09T08:13:03;4.07;;;1.73;;
68944;SDS011;55984;48.790;8.990;2022-09-09T08:15:28;5.60;;;1.70;;
68944;SDS011;55984;48.790;8.990;2022-09-09T08:17:56;4.13;;;1.80;;
68944;SDS011;55984;48.790;8.990;2022-09-09T08:20:21;3.63;;;1.70;;
68944;SDS011;55984;48.790;8.990;2022-09-09T08:22:48;3.80;;;2.03;;
68944;SDS011;55984;48.790;8.990;2022-09-09T08:25:15;4.47;;;1.70;;
68944;SDS011;55984;48.790;8.990;2022-09-09T08:27:40;3.60;;;1.80;;
68944;SDS011;55984;48.790;8.990;2022-09-09T08:30:06;5.43;;;2.03;;
68944;SDS011;55984;48.790;8.990;2022-09-09T08:32:31;16.63;;;2.77;;
68944;SDS011;55984;48.790;8.990;2022-09-09T08:34:57;4.10;;;2.43;;
68944;SDS011;55984;48.790;8.990;2022-09-09T08:37:22;3.30;;;1.80;;
68944;SDS011;55984;48.790;8.990;2022-09-09T08:39:48;5.40;;;1.80;;
68944;SDS011;55984;48.790;8.990;2022-09-09T08:50:36;5.20;;;1.77;;
68944;SDS011;55984;48.790;8.990;2022-09-09T08:53:09;4.27;;;1.90;;
68944;SDS011;55984;48.790;8.990;2022-09-09T08:58:19;4.80;;;1.90;;
68944;SDS011;55984;48.790;8.990;2022-09-09T09:09:02;4.00;;;1.90;;
68944;SDS011;55984;48.790;8.990;2022-09-09T09:11:40;7.93;;;2.10;;
68944;SDS011;55984;48.790;8.990;2022-09-09T09:14:20;5.30;;;2.13;;
68944;SDS011;55984;48.790;8.990;2022-09-09T09:17:01;3.37;;;1.70;;
68944;SDS011;55984;48.790;8.990;2022-09-09T09:19:32;4.13;;;2.03;;
68944;SDS011;55984;48.790;8.990;2022-09-09T09:22:16;8.07;;;2.13;;
68944;SDS011;55984;48.790;8.990;2022-09-09T09:27:34;6.80;;;1.93;;
68944;SDS011;55984;48.790;8.990;2022-09-09T09:30:38;9.53;;;2.20;;
68944;SDS011;55984;48.790;8.990;2022-09-09T09:33:21;4.20;;;1.90;;
68944;SDS011;55984;48.790;8.990;2022-09-09T09:35:53;3.83;;;1.70;;
68944;SDS011;55984;48.790;8.990;2022-09-09T09:38:25;4.40;;;1.70;;
68944;SDS011;55984;48.790;8.990;2022-09-09T09:40:56;3.80;;;1.80;;
68944;SDS011;55984;48.790;8.990;2022-09-09T09:43:24;3.63;;;1.60;;
68944;SDS011;55984;48.790;8.990;2022-09-09T09:45:52;3.30;;;1.80;;
68944;SDS011;55984;48.790;8.990;2022-09-09T09:48:18;4.83;;;1.80;;
68944;SDS011;55984;48.790;8.990;2022-09-09T09:50:48;7.13;;;1.80;;
68944;SDS011;55984;48.790;8.990;2022-09-09T09:53:18;3.00;;;1.50;;
68944;SDS011;55984;48.790;8.990;2022-09-09T09:55:55;4.00;;;1.50;;
68944;SDS011;55984;48.790;8.990;2022-09-09T09:58:23;5.63;;;2.17;;
68944;SDS011;55984;48.790;8.990;2022-09-09T10:00:51;3.83;;;1.70;;
68944;SDS011;55984;48.790;8.990;2022-09-09T10:03:22;4.03;;;1.73;;
68944;SDS011;55984;48.790;8.990;2022-09-09T10:05:49;5.83;;;1.70;;
68944;SDS011;55984;48.790;8.990;2022-09-09T10:08:18;6.00;;;2.00;;
68944;SDS011;55984;48.790;8.990;2022-09-09T10:13:49;7.83;;;2.07;;
68944;SDS011;55984;48.790;8.990;2022-09-09T10:19:35;6.63;;;1.80;;
68944;SDS011;55984;48.790;8.990;2022-09-09T10:27:23;3.10;;;1.60;;
68944;SDS011;55984;48.790;8.990;2022-09-09T10:30:21;7.83;;;2.30;;
68944;SDS011;55984;48.790;8.990;2022-09-09T10:36:15;6.57;;;2.00;;
68944;SDS011;55984;48.790;8.990;2022-09-09T10:38:46;7.23;;;2.07;;
68944;SDS011;55984;48.790;8.990;2022-09-09T10:41:18;4.23;;;1.80;;
68944;SDS011;55984;48.790;8.990;2022-09-09T10:43:55;7.50;;;2.30;;
68944;SDS011;55984;48.790;8.990;2022-09-09T10:52:54;10.07;;;2.50;;
68944;SDS011;55984;48.790;8.990;2022-09-09T10:55:32;7.27;;;2.50;;
68944;SDS011;55984;48.790;8.990;2022-09-09T10:58:04;3.50;;;2.20;;
68944;SDS011;55984;48.790;8.990;2022-09-09T11:00:39;6.50;;;1.87;;
68944;SDS011;55984;48.790;8.990;2022-09-09T11:03:27;7.50;;;2.20;;
68944;SDS011;55984;48.790;8.990;2022-09-09T11:06:14;7.20;;;2.37;;
68944;SDS011;55984;48.790;8.990;2022-09-09T11:08:44;4.30;;;2.10;;
68944;SDS011;55984;48.790;8.990;2022-09-09T11:21:37;2.43;;;2.03;;
68944;SDS011;55984;48.790;8.990;2022-09-09T11:24:30;3.73;;;1.80;;
68944;SDS011;55984;48.790;8.990;2022-09-09T11:27:06;4.00;;;1.77;;
68944;SDS011;55984;48.790;8.990;2022-09-09T11:35:22;3.30;;;1.70;;
68944;SDS011;55984;48.790;8.990;2022-09-09T11:38:15;3.03;;;1.70;;
68944;SDS011;55984;48.790;8.990;2022-09-09T11:40:42;2.50;;;1.60;;
68944;SDS011;55984;48.790;8.990;2022-09-09T11:43:10;3.27;;;1.90;;
68944;SDS011;55984;48.790;8.990;2022-09-09T11:45:43;3.60;;;1.70;;
68944;SDS011;55984;48.790;8.990;2022-09-09T11:48:31;5.63;;;1.80;;
68944;SDS011;55984;48.790;8.990;2022-09-09T11:51:03;2.00;;;1.50;;
68944;SDS011;55984;48.790;8.990;2022-09-09T11:53:30;2.83;;;2.00;;
68944;SDS011;55984;48.790;8.990;2022-09-09T11:56:03;3.60;;;1.50;;
68944;SDS011;55984;48.790;8.990;2022-09-09T11:58:33;2.93;;;1.80;;
68944;SDS011;55984;48.790;8.990;2022-09-09T12:01:26;5.40;;;1.60;;
68944;SDS011;55984;48.790;8.990;2022-09-09T12:03:55;5.27;;;2.23;;
68944;SDS011;55984;48.790;8.990;2022-09-09T12:06:30;3.30;;;1.63;;
68944;SDS011;55984;48.790;8.990;2022-09-09T12:08:58;2.33;;;1.40;;
68944;SDS011;55984;48.790;8.990;2022-09-09T12:11:33;6.93;;;1.70;;
68944;SDS011;55984;48.790;8.990;2022-09-09T12:13:59;7.33;;;1.40;;
68944;SDS011;55984;48.790;8.990;2022-09-09T12:16:32;9.03;;;1.60;;
68944;SDS011;55984;48.790;8.990;2022-09-09T12:19:12;5.27;;;1.43;;
68944;SDS011;55984;48.790;8.990;2022-09-09T12:24:35;4.13;;;1.40;;
68944;SDS011;55984;48.790;8.990;2022-09-09T12:30:07;3.80;;;1.30;;
68944;SDS011;55984;48.790;8.990;2022-09-09T12:32:35;2.10;;;1.47;;
68944;SDS011;55984;48.790;8.990;2022-09-09T12:35:03;2.07;;;1.37;;
68944;SDS011;55984;48.790;8.990;2022-09-09T12:40:04;3.50;;;1.40;;
68944;SDS011;55984;48.790;8.990;2022-09-09T12:42:46;3.40;;;1.47;;
68944;SDS011;55984;48.790;8.990;2022-09-09T12:45:16;3.10;;;1.30;;
68944;SDS011;55984;48.790;8.990;2022-09-09T12:47:48;3.10;;;1.30;;
68944;SDS011;55984;48.790;8.990;2022-09-09T12:50:49;4.53;;;1.70;;
68944;SDS011;55984;48.790;8.990;2022-09-09T12:53:17;3.10;;;1.40;;
68944;SDS011;55984;48.790;8.990;2022-09-09T12:55:58;2.47;;;1.47;;
68944;SDS011;55984;48.790;8.990;2022-09-09T12:58:27;3.03;;;1.53;;
68944;SDS011;55984;48.790;8.990;2022-09-09T13:00:58;4.50;;;2.77;;
68944;SDS011;55984;48.790;8.990;2022-09-09T13:03:25;2.87;;;1.47;;
68944;SDS011;55984;48.790;8.990;2022-09-09T13:05:51;4.70;;;1.53;;
68944;SDS011;55984;48.790;8.990;2022-09-09T13:08:18;2.77;;;1.50;;
68944;SDS011;55984;48.790;8.990;2022-09-09T13:10:49;2.73;;;1.50;;
68944;SDS011;55984;48.790;8.990;2022-09-09T13:13:40;2.20;;;1.20;;
68944;SDS011;55984;48.790;8.990;2022-09-09T13:16:18;1.77;;;1.33;;
68944;SDS011;55984;48.790;8.990;2022-09-09T13:18:45;7.30;;;1.40;;
68944;SDS011;55984;48.790;8.990;2022-09-09T13:21:11;4.90;;;1.40;;
68944;SDS011;55984;48.790;8.990;2022-09-09T13:23:37;2.40;;;1.50;;
68944;SDS011;55984;48.790;8.990;2022-09-09T13:26:18;2.60;;;1.40;;
68944;SDS011;55984;48.790;8.990;2022-09-09T13:28:47;2.73;;;1.47;;
68944;SDS011;55984;48.790;8.990;2022-09-09T13:31:23;1.70;;;1.23;;
68944;SDS011;55984;48.790;8.990;2022-09-09T13:33:53;5.07;;;1.50;;
68944;SDS011;55984;48.790;8.990;2022-09-09T13:36:27;2.37;;;1.33;;
68944;SDS011;55984;48.790;8.990;2022-09-09T13:38:55;3.00;;;1.30;;
68944;SDS011;55984;48.790;8.990;2022-09-09T13:41:22;3.83;;;1.40;;
68944;SDS011;55984;48.790;8.990;2022-09-09T13:43:49;4.00;;;1.50;;
68944;SDS011;55984;48.790;8.990;2022-09-09T13:46:35;4.97;;;1.40;;
68944;SDS011;55984;48.790;8.990;2022-09-09T13:49:23;3.47;;;1.47;;
68944;SDS011;55984;48.790;8.990;2022-09-09T13:51:50;2.67;;;1.40;;
68944;SDS011;55984;48.790;8.990;2022-09-09T13:54:18;3.33;;;1.43;;
68944;SDS011;55984;48.790;8.990;2022-09-09T13:56:45;3.17;;;1.30;;
68944;SDS011;55984;48.790;8.990;2022-09-09T13:59:11;4.50;;;1.67;;
68944;SDS011;55984;48.790;8.990;2022-09-09T14:01:41;3.77;;;1.40;;
68944;SDS011;55984;48.790;8.990;2022-09-09T14:04:07;1.80;;;1.30;;
68944;SDS011;55984;48.790;8.990;2022-09-09T14:06:37;4.83;;;1.40;;
68944;SDS011;55984;48.790;8.990;2022-09-09T14:09:04;2.70;;;1.40;;
68944;SDS011;55984;48.790;8.990;2022-09-09T14:11:39;3.20;;;1.50;;
68944;SDS011;55984;48.790;8.990;2022-09-09T14:14:05;3.30;;;1.30;;
68944;SDS011;55984;48.790;8.990;2022-09-09T14:16:30;2.20;;;1.30;;
68944;SDS011;55984;48.790;8.990;2022-09-09T14:18:56;5.10;;;1.40;;
68944;SDS011;55984;48.790;8.990;2022-09-09T14:21:22;2.60;;;1.47;;
68944;SDS011;55984;48.790;8.990;2022-09-09T14:23:48;2.17;;;1.40;;
68944;SDS011;55984;48.790;8.990;2022-09-09T14:26:19;3.20;;;1.50;;
68944;SDS011;55984;48.790;8.990;2022-09-09T14:28:46;1.97;;;1.50;;
68944;SDS011;55984;48.790;8.990;2022-09-09T14:31:12;2.20;;;1.40;;
68944;SDS011;55984;48.790;8.990;2022-09-09T14:33:38;2.00;;;1.30;;
68944;SDS011;55984;48.790;8.990;2022-09-09T14:36:03;4.27;;;1.40;;
68944;SDS011;55984;48.790;8.990;2022-09-09T14:38:30;4.47;;;1.40;;
68944;SDS011;55984;48.790;8.990;2022-09-09T14:40:58;4.63;;;1.73;;
68944;SDS011;55984;48.790;8.990;2022-09-09T14:43:24;3.10;;;1.30;;
68944;SDS011;55984;48.790;8.990;2022-09-09T14:45:51;3.00;;;1.30;;
68944;SDS011;55984;48.790;8.990;2022-09-09T14:48:20;2.00;;;1.30;;
68944;SDS011;55984;48.790;8.990;2022-09-09T14:50:45;3.20;;;1.20;;
68944;SDS011;55984;48.790;8.990;2022-09-09T14:53:11;2.87;;;1.30;;
68944;SDS011;55984;48.790;8.990;2022-09-09T14:55:37;1.77;;;1.30;;
68944;SDS011;55984;48.790;8.990;2022-09-09T14:58:03;2.13;;;1.30;;
68944;SDS011;55984;48.790;8.990;2022-09-09T15:00:29;3.47;;;1.40;;
68944;SDS011;55984;48.790;8.990;2022-09-09T15:02:54;4.93;;;1.40;;
68944;SDS011;55984;48.790;8.990;2022-09-09T15:05:22;2.50;;;1.23;;
68944;SDS011;55984;48.790;8.990;2022-09-09T15:07:49;2.23;;;1.40;;
68944;SDS011;55984;48.790;8.990;2022-09-09T15:10:14;6.03;;;1.40;;
68944;SDS011;55984;48.790;8.990;2022-09-09T15:12:40;3.37;;;1.40;;
68944;SDS011;55984;48.790;8.990;2022-09-09T15:15:06;2.63;;;1.50;;
68944;SDS011;55984;48.790;8.990;2022-09-09T15:17:32;2.40;;;1.30;;
68944;SDS011;55984;48.790;8.990;2022-09-09T15:19:58;3.60;;;1.40;;
68944;SDS011;55984;48.790;8.990;2022-09-09T15:22:23;4.57;;;1.60;;
68944;SDS011;55984;48.790;8.990;2022-09-09T15:24:49;2.00;;;1.40;;
68944;SDS011;55984;48.790;8.990;2022-09-09T15:27:15;3.90;;;1.40;;
68944;SDS011;55984;48.790;8.990;2022-09-09T15:29:41;3.23;;;1.57;;
68944;SDS011;55984;48.790;8.990;2022-09-09T15:32:07;2.87;;;1.30;;
68944;SDS011;55984;48.790;8.990;2022-09-09T15:34:32;2.60;;;1.37;;
68944;SDS011;55984;48.790;8.990;2022-09-09T15:37:00;2.63;;;1.30;;
68944;SDS011;55984;48.790;8.990;2022-09-09T15:39:25;2.93;;;1.50;;
68944;SDS011;55984;48.790;8.990;2022-09-09T15:41:51;4.13;;;1.50;;
68944;SDS011;55984;48.790;8.990;2022-09-09T15:44:16;4.20;;;1.70;;
68944;SDS011;55984;48.790;8.990;2022-09-09T15:46:44;3.00;;;1.50;;
68944;SDS011;55984;48.790;8.990;2022-09-09T15:49:17;2.77;;;1.30;;
68944;SDS011;55984;48.790;8.990;2022-09-09T15:51:45;3.60;;;1.40;;
68944;SDS011;55984;48.790;8.990;2022-09-09T15:54:19;2.83;;;1.40;;
68944;SDS011;55984;48.790;8.990;2022-09-09T15:56:50;3.00;;;1.60;;
68944;SDS011;55984;48.790;8.990;2022-09-09T15:59:22;2.90;;;1.60;;
68944;SDS011;55984;48.790;8.990;2022-09-09T16:01:49;6.60;;;1.93;;
68944;SDS011;55984;48.790;8.990;2022-09-09T16:04:17;2.70;;;1.30;;
68944;SDS011;55984;48.790;8.990;2022-09-09T16:06:53;2.80;;;1.63;;
68944;SDS011;55984;48.790;8.990;2022-09-09T16:09:24;3.50;;;1.40;;
68944;SDS011;55984;48.790;8.990;2022-09-09T16:11:50;3.10;;;1.50;;
68944;SDS011;55984;48.790;8.990;2022-09-09T16:14:16;6.63;;;1.67;;
68944;SDS011;55984;48.790;8.990;2022-09-09T16:16:42;3.10;;;1.40;;
68944;SDS011;55984;48.790;8.990;2022-09-09T16:19:08;1.90;;;1.50;;
68944;SDS011;55984;48.790;8.990;2022-09-09T16:21:37;3.10;;;1.33;;
68944;SDS011;55984;48.790;8.990;2022-09-09T16:24:04;2.00;;;1.20;;
68944;SDS011;55984;48.790;8.990;2022-09-09T16:26:32;1.40;;;1.00;;
68944;SDS011;55984;48.790;8.990;2022-09-09T16:28:59;2.00;;;1.20;;
68944;SDS011;55984;48.790;8.990;2022-09-09T16:31:25;2.03;;;1.17;;
68944;SDS011;55984;48.790;8.990;2022-09-09T16:33:52;1.80;;;1.20;;
68944;SDS011;55984;48.790;8.990;2022-09-09T16:36:19;1.50;;;1.13;;
68944;SDS011;55984;48.790;8.990;2022-09-09T16:38:46;1.60;;;1.23;;
68944;SDS011;55984;48.790;8.990;2022-09-09T16:41:12;1.80;;;1.20;;
68944;SDS011;55984;48.790;8.990;2022-09-09T16:43:39;2.00;;;1.30;;
68944;SDS011;55984;48.790;8.990;2022-09-09T16:48:41;3.50;;;1.40;;
68944;SDS011;55984;48.790;8.990;2022-09-09T16:51:09;4.40;;;1.33;;
68944;SDS011;55984;48.790;8.990;2022-09-09T16:53:49;1.97;;;1.30;;
68944;SDS011;55984;48.790;8.990;2022-09-09T16:56:18;1.77;;;1.33;;
68944;SDS011;55984;48.790;8.990;2022-09-09T16:58:50;1.87;;;1.30;;
68944;SDS011;55984;48.790;8.990;2022-09-09T17:01:18;2.10;;;1.37;;
68944;SDS011;55984;48.790;8.990;2022-09-09T17:03:44;4.10;;;1.37;;
68944;SDS011;55984;48.790;8.990;2022-09-09T17:06:10;1.93;;;1.43;;
68944;SDS011;55984;48.790;8.990;2022-09-09T17:08:37;2.40;;;1.40;;